Time;durP1;ratioP1;P1;durP2;ratioP2;P2;SDS_P1;SDS_P2;PMS_P1;PMS_P2;Temp;Humidity;BMP_temperature;BMP_pressure;BME280_temperature;BME280_humidity;BME280_pressure;Samples;Min_cycle;Max_cycle;Signal;HPM_P1;HPM_P2
2023/05/29 00:01:32;;;;;;;6.50;4.10;;;;;;;10.56;100.00;101343.28;5065106;28;20036;-81
2023/05/29 00:03:59;;;;;;;6.30;4.00;;;;;;;10.41;100.00;101344.28;5068110;28;20565;-80
2023/05/29 00:06:26;;;;;;;8.27;3.90;;;;;;;10.41;100.00;101336.34;5088155;28;20043;-80
2023/05/29 00:08:53;;;;;;;7.80;4.38;;;;;;;10.52;100.00;101345.06;5058747;28;20580;-81
2023/05/29 00:11:20;;;;;;;6.70;4.63;;;;;;;10.51;100.00;101345.06;5055075;28;20047;-82
2023/05/29 00:13:46;;;;;;;9.18;3.95;;;;;;;10.47;100.00;101352.16;5053730;28;20039;-80
2023/05/29 00:16:13;;;;;;;6.53;3.95;;;;;;;10.42;100.00;101349.56;5073889;28;20042;-79
2023/05/29 00:18:45;;;;;;;8.73;3.70;;;;;;;10.39;100.00;101352.22;5076590;28;20044;-81
2023/05/29 00:21:13;;;;;;;5.65;3.85;;;;;;;10.33;100.00;101356.66;5056743;28;20112;-83
2023/05/29 00:23:40;;;;;;;4.97;3.08;;;;;;;10.33;100.00;101354.03;5090662;28;20040;-81
2023/05/29 00:26:07;;;;;;;6.63;3.90;;;;;;;10.34;100.00;101364.63;5076677;28;20066;-81
2023/05/29 00:28:36;;;;;;;11.15;4.05;;;;;;;10.28;100.00;101355.84;5057068;28;20132;-83
2023/05/29 00:31:03;;;;;;;7.10;4.03;;;;;;;10.29;100.00;101357.59;5083213;28;20031;-82
2023/05/29 00:33:30;;;;;;;8.70;4.18;;;;;;;10.25;100.00;101361.13;5054956;28;20040;-81
2023/05/29 00:35:57;;;;;;;6.07;3.83;;;;;;;10.21;100.00;101365.53;5056850;28;20039;-83
2023/05/29 00:38:23;;;;;;;5.95;4.00;;;;;;;10.11;100.00;101359.47;5060930;28;20058;-82
2023/05/29 00:40:50;;;;;;;6.68;3.60;;;;;;;10.08;100.00;101362.09;5096695;28;20131;-82
2023/05/29 00:43:17;;;;;;;10.07;4.68;;;;;;;10.07;100.00;101365.63;5055466;28;20040;-83
2023/05/29 00:45:43;;;;;;;7.45;4.32;;;;;;;10.15;100.00;101366.47;5075861;28;20113;-82
2023/05/29 00:48:10;;;;;;;5.25;3.60;;;;;;;10.12;100.00;101360.34;5064884;28;20658;-82
2023/05/29 00:50:37;;;;;;;6.70;4.35;;;;;;;10.14;100.00;101358.56;5064865;28;20108;-83
2023/05/29 00:53:06;;;;;;;7.32;4.20;;;;;;;10.08;100.00;101367.38;5077164;28;20497;-82
2023/05/29 00:55:33;;;;;;;5.57;4.00;;;;;;;9.98;100.00;101370.09;5058428;28;20039;-82
2023/05/29 00:58:00;;;;;;;6.15;4.15;;;;;;;9.92;100.00;101367.50;5062342;28;20047;-82
2023/05/29 01:00:27;;;;;;;9.07;4.50;;;;;;;9.91;100.00;101368.41;5061559;28;20050;-81
2023/05/29 01:02:56;;;;;;;6.22;3.42;;;;;;;9.90;100.00;101377.19;5086668;28;20075;-81
2023/05/29 01:05:23;;;;;;;6.45;4.20;;;;;;;9.92;100.00;101376.31;5043553;28;20028;-82
2023/05/29 01:07:50;;;;;;;9.10;4.18;;;;;;;9.91;100.00;101374.53;5071345;28;20051;-81
2023/05/29 01:10:17;;;;;;;8.70;4.90;;;;;;;9.86;100.00;101371.94;5069398;28;20060;-80
2023/05/29 01:12:50;;;;;;;7.03;4.20;;;;;;;9.84;100.00;101375.50;5059008;28;20062;-82
2023/05/29 01:15:23;;;;;;;9.57;4.70;;;;;;;9.83;100.00;101373.72;5075076;28;20032;-80
2023/05/29 01:17:50;;;;;;;7.65;5.28;;;;;;;9.75;100.00;101378.16;5077503;28;20267;-82
2023/05/29 01:20:41;;;;;;;8.67;3.93;;;;;;;9.61;100.00;101382.66;5096065;28;20097;-82
2023/05/29 01:23:27;;;;;;;6.55;4.10;;;;;;;9.53;100.00;101383.56;5096180;27;20047;-81
2023/05/29 01:26:01;;;;;;;6.83;4.27;;;;;;;9.58;100.00;101376.50;5075829;27;20031;-83
2023/05/29 01:28:40;;;;;;;8.60;4.65;;;;;;;9.51;100.00;101385.34;5077807;28;20127;-79
2023/05/29 01:31:07;;;;;;;8.53;4.60;;;;;;;9.48;100.00;101381.81;5062275;27;20046;-81
2023/05/29 01:33:38;;;;;;;5.93;3.50;;;;;;;9.45;100.00;101389.75;5071850;28;20137;-82
2023/05/29 01:36:06;;;;;;;7.63;4.20;;;;;;;9.38;100.00;101386.25;5045228;28;20068;-82
2023/05/29 01:38:32;;;;;;;7.70;4.60;;;;;;;9.33;100.00;101393.31;5070512;28;20139;-82
2023/05/29 01:41:00;;;;;;;8.20;4.30;;;;;;;9.30;100.00;101390.69;5067218;27;20065;-80
2023/05/29 01:43:27;;;;;;;7.07;4.60;;;;;;;9.23;100.00;101384.56;5078197;28;20036;-80
2023/05/29 01:45:55;;;;;;;9.43;4.63;;;;;;;9.22;100.00;101382.78;5062674;27;20071;-82
2023/05/29 01:48:22;;;;;;;6.77;3.90;;;;;;;9.23;100.00;101392.47;5076684;28;20118;-82
2023/05/29 01:50:49;;;;;;;10.10;5.43;;;;;;;9.16;100.00;101390.72;5071841;28;20040;-83
2023/05/29 01:53:16;;;;;;;7.40;4.10;;;;;;;9.02;100.00;101390.78;5084897;28;20035;-81
2023/05/29 01:55:43;;;;;;;8.13;4.60;;;;;;;8.92;100.00;101390.81;5088093;27;20071;-82
2023/05/29 01:58:13;;;;;;;6.60;4.10;;;;;;;8.97;100.00;101391.66;5077472;27;20536;-81
2023/05/29 02:00:40;;;;;;;7.53;4.80;;;;;;;8.95;100.00;101386.41;5067719;28;20048;-82
2023/05/29 02:03:07;;;;;;;8.57;4.13;;;;;;;8.92;100.00;101389.06;5063807;28;20489;-82
2023/05/29 02:05:34;;;;;;;7.70;4.47;;;;;;;8.94;100.00;101386.41;5081926;28;20048;-81
2023/05/29 02:08:00;;;;;;;8.27;4.33;;;;;;;8.87;100.00;101390.81;5069961;28;20032;-84
2023/05/29 02:10:27;;;;;;;7.00;4.07;;;;;;;8.84;100.00;101389.94;5072818;28;20041;-84
2023/05/29 02:12:54;;;;;;;7.83;4.07;;;;;;;8.82;100.00;101389.91;5071788;28;20036;-82
2023/05/29 02:15:21;;;;;;;7.13;4.30;;;;;;;8.74;100.00;101394.31;5071351;28;20036;-83
2023/05/29 02:17:49;;;;;;;8.23;4.83;;;;;;;8.74;100.00;101394.31;5076667;28;20043;-82
2023/05/29 02:20:16;;;;;;;8.77;4.57;;;;;;;8.72;100.00;101402.22;5081818;28;20405;-83
2023/05/29 02:22:43;;;;;;;9.53;4.90;;;;;;;8.67;100.00;101404.00;5077255;28;20084;-83
2023/05/29 02:25:09;;;;;;;6.77;4.50;;;;;;;8.64;100.00;101405.75;5057854;28;20028;-83
2023/05/29 02:27:36;;;;;;;9.17;5.13;;;;;;;8.59;100.00;101404.91;5061654;27;20054;-83
2023/05/29 02:30:03;;;;;;;8.50;4.90;;;;;;;8.59;100.00;101400.50;5059364;28;20051;-83
2023/05/29 02:32:30;;;;;;;6.17;4.00;;;;;;;8.53;100.00;101411.03;5054457;28;20032;-83
2023/05/29 02:34:57;;;;;;;7.27;4.07;;;;;;;8.48;100.00;101399.59;5063785;28;20056;-82
2023/05/29 02:37:25;;;;;;;9.13;4.73;;;;;;;8.44;100.00;101398.75;5058713;28;20036;-83
2023/05/29 02:39:52;;;;;;;6.23;4.60;;;;;;;8.41;100.00;101406.66;5073428;28;20040;-83
2023/05/29 02:42:19;;;;;;;6.80;4.03;;;;;;;8.42;100.00;101402.28;5085363;28;20043;-82
2023/05/29 02:44:45;;;;;;;7.90;4.47;;;;;;;8.41;100.00;101401.38;5065846;28;20039;-82
2023/05/29 02:47:12;;;;;;;6.90;4.30;;;;;;;8.42;100.00;101400.50;5083252;28;20048;-83
2023/05/29 02:49:41;;;;;;;9.13;5.50;;;;;;;8.39;100.00;101403.13;5064135;28;20035;-84
2023/05/29 02:52:08;;;;;;;8.60;4.97;;;;;;;8.30;100.00;101397.81;5085119;28;20063;-82
2023/05/29 02:54:35;;;;;;;6.40;4.40;;;;;;;8.22;100.00;101394.31;5067511;28;20036;-82
2023/05/29 02:57:02;;;;;;;8.00;5.10;;;;;;;8.20;100.00;101398.69;5071948;28;20131;-84
2023/05/29 02:59:29;;;;;;;7.17;4.53;;;;;;;8.21;100.00;101394.31;5047739;28;20110;-83
2023/05/29 03:01:55;;;;;;;7.03;4.90;;;;;;;8.21;100.00;101394.31;5087495;28;20032;-83
2023/05/29 03:04:22;;;;;;;8.73;4.90;;;;;;;8.16;100.00;101397.84;5088137;28;20524;-81
2023/05/29 03:06:49;;;;;;;9.93;5.53;;;;;;;8.10;100.00;101397.81;5072449;28;20036;-81
2023/05/29 03:09:16;;;;;;;6.07;4.17;;;;;;;8.10;100.00;101400.44;5069822;28;20033;-83
2023/05/29 03:11:44;;;;;;;7.83;4.90;;;;;;;8.09;100.00;101397.81;5071298;28;20040;-82
2023/05/29 03:14:11;;;;;;;7.60;4.70;;;;;;;8.08;100.00;101396.94;5071286;28;20129;-82
2023/05/29 03:16:38;;;;;;;11.03;5.73;;;;;;;8.03;100.00;101403.94;5048336;27;20046;-83
2023/05/29 03:19:05;;;;;;;7.63;4.57;;;;;;;8.06;100.00;101403.06;5046263;28;20044;-83
2023/05/29 03:21:31;;;;;;;8.67;4.80;;;;;;;8.03;100.00;101408.31;5095038;28;20119;-84
2023/05/29 03:23:58;;;;;;;7.80;4.30;;;;;;;8.05;100.00;101403.94;5071363;28;20060;-83
2023/05/29 03:26:25;;;;;;;8.10;5.70;;;;;;;8.01;100.00;101404.81;5071476;28;20040;-81
2023/05/29 03:28:52;;;;;;;8.77;5.17;;;;;;;7.95;100.00;101405.66;5071813;28;20036;-83
2023/05/29 03:31:19;;;;;;;9.57;5.70;;;;;;;7.94;100.00;101406.56;5083036;27;20041;-84
2023/05/29 03:33:47;;;;;;;8.50;5.10;;;;;;;7.96;100.00;101407.44;5051245;28;20043;-81
2023/05/29 03:36:13;;;;;;;9.80;5.20;;;;;;;8.02;100.00;101409.19;5042504;28;20044;-82
2023/05/29 03:38:40;;;;;;;7.67;5.83;;;;;;;8.01;100.00;101404.81;5071179;28;20044;-83
2023/05/29 03:41:07;;;;;;;8.10;5.17;;;;;;;8.03;100.00;101408.31;5068220;28;20044;-83
2023/05/29 03:43:33;;;;;;;8.80;5.10;;;;;;;8.01;100.00;101407.44;5052821;28;20079;-81
2023/05/29 03:46:00;;;;;;;9.53;5.50;;;;;;;8.09;100.00;101408.34;5053762;27;20058;-81
2023/05/29 03:48:27;;;;;;;10.60;5.57;;;;;;;8.15;100.00;101410.97;5068049;28;20044;-84
2023/05/29 03:50:53;;;;;;;7.73;5.00;;;;;;;8.26;100.00;101411.00;5072052;28;20043;-82
2023/05/29 03:53:20;;;;;;;7.90;4.80;;;;;;;8.32;100.00;101401.31;5067528;28;20046;-82
2023/05/29 03:55:47;;;;;;;8.30;4.70;;;;;;;8.39;100.00;101394.34;5068104;28;20036;-84
2023/05/29 03:58:14;;;;;;;8.30;5.40;;;;;;;8.45;100.00;101402.25;5071296;28;20051;-82
2023/05/29 04:00:40;;;;;;;10.00;5.23;;;;;;;8.48;100.00;101402.25;5066788;28;20040;-82
2023/05/29 04:03:08;;;;;;;7.17;4.47;;;;;;;8.61;100.00;101409.28;5058004;28;20040;-83
2023/05/29 04:05:34;;;;;;;8.57;4.63;;;;;;;8.69;100.00;101415.41;5079907;28;20468;-83
2023/05/29 04:08:04;;;;;;;7.80;4.87;;;;;;;8.67;100.00;101416.31;5051615;28;20035;-83
2023/05/29 04:10:41;;;;;;;7.70;4.73;;;;;;;8.71;100.00;101418.06;5074121;28;20044;-84
2023/05/29 04:13:08;;;;;;;7.70;4.67;;;;;;;8.73;100.00;101424.19;5082194;28;20036;-82
2023/05/29 04:15:35;;;;;;;8.57;5.10;;;;;;;8.78;100.00;101427.72;5063570;28;20066;-82
2023/05/29 04:18:02;;;;;;;7.80;4.87;;;;;;;8.83;100.00;101423.31;5051387;28;20495;-81
2023/05/29 04:20:29;;;;;;;8.60;5.33;;;;;;;8.82;100.00;101426.81;5082318;28;20054;-81
2023/05/29 04:22:56;;;;;;;8.60;5.10;;;;;;;8.86;100.00;101431.22;5084567;28;20036;-83
2023/05/29 04:25:22;;;;;;;6.90;4.80;;;;;;;8.91;100.00;101426.84;5059810;28;20040;-83
2023/05/29 04:27:49;;;;;;;9.20;5.40;;;;;;;8.93;100.00;101426.81;5080881;28;20285;-82
2023/05/29 04:30:16;;;;;;;8.47;5.40;;;;;;;9.03;100.00;101434.69;5055847;28;20094;-82
2023/05/29 04:32:43;;;;;;;7.70;5.63;;;;;;;9.08;100.00;101434.72;5087197;28;20504;-81
2023/05/29 04:35:10;;;;;;;10.03;5.53;;;;;;;9.17;100.00;101437.31;5039418;28;20064;-81
2023/05/29 04:37:38;;;;;;;7.67;5.47;;;;;;;9.22;100.00;101430.25;5064919;28;20031;-83
2023/05/29 04:40:10;;;;;;;11.37;5.20;;;;;;;9.38;100.00;101431.09;5059363;28;20050;-82
2023/05/29 04:42:41;;;;;;;7.95;4.82;;;;;;;9.49;100.00;101439.84;5070678;28;20047;-82
2023/05/29 04:45:10;;;;;;;10.70;5.63;;;;;;;9.58;100.00;101436.28;5071494;28;20039;-82
2023/05/29 04:47:43;;;;;;;8.70;5.10;;;;;;;9.65;100.00;101438.03;5091852;28;20039;-81
2023/05/29 04:50:13;;;;;;;6.67;5.07;;;;;;;9.80;100.00;101439.72;5072415;28;20175;-83
2023/05/29 04:52:41;;;;;;;10.30;5.17;;;;;;;9.84;100.00;101449.41;5076263;28;20042;-83
2023/05/29 04:55:10;;;;;;;8.47;5.57;;;;;;;10.12;100.00;101451.00;5072571;28;20095;-81
2023/05/29 04:57:36;;;;;;;7.43;5.03;;;;;;;10.31;100.00;101443.84;5095264;27;20039;-83
2023/05/29 05:00:08;;;;;;;7.22;5.68;;;;;;;10.53;100.00;101444.59;5076012;28;20221;-82
2023/05/29 05:02:35;;;;;;;9.50;4.93;;;;;;;10.61;100.00;101441.88;5064975;28;20112;-81
2023/05/29 05:05:01;;;;;;;8.45;5.05;;;;;;;10.64;100.00;101441.84;5074910;28;20036;-84
2023/05/29 05:07:28;;;;;;;6.38;4.82;;;;;;;10.71;100.00;101439.13;5058835;28;20505;-83
2023/05/29 05:09:55;;;;;;;7.90;4.80;;;;;;;10.82;100.00;101436.41;5072468;28;20039;-83
2023/05/29 05:12:21;;;;;;;6.07;4.95;;;;;;;10.99;100.00;101434.47;5064742;28;20401;-82
2023/05/29 05:14:48;;;;;;;7.63;4.80;;;;;;;11.06;100.00;101431.78;5071134;28;20432;-84
2023/05/29 05:17:15;;;;;;;7.35;4.15;;;;;;;11.15;100.00;101432.53;5073854;27;20046;-83
2023/05/29 05:19:42;;;;;;;8.82;4.93;;;;;;;11.12;100.00;101434.38;5090292;27;20484;-82
2023/05/29 05:22:09;;;;;;;8.38;4.63;;;;;;;11.10;100.00;101433.47;5091665;28;20042;-84
2023/05/29 05:24:35;;;;;;;6.80;4.55;;;;;;;11.29;100.00;101429.75;5088838;28;20484;-82
2023/05/29 05:27:04;;;;;;;6.03;4.78;;;;;;;11.39;100.00;101446.41;5052300;28;20062;-82
2023/05/29 05:29:31;;;;;;;6.95;4.57;;;;;;;11.65;100.00;101438.16;5065318;28;20382;-83
2023/05/29 05:31:58;;;;;;;11.88;5.88;;;;;;;11.88;100.00;101445.84;5087236;28;20050;-83
2023/05/29 05:34:24;;;;;;;7.70;4.38;;;;;;;12.64;100.00;101436.75;5076020;28;20071;-82
2023/05/29 05:36:51;;;;;;;8.38;4.55;;;;;;;13.31;100.00;101434.69;5069998;28;20059;-83
2023/05/29 05:39:18;;;;;;;7.47;4.57;;;;;;;14.12;93.66;101435.63;5061626;28;20122;-83
2023/05/29 05:41:44;;;;;;;4.90;3.25;;;;;;;15.08;86.92;101433.28;5068829;27;20061;-83
2023/05/29 05:44:11;;;;;;;5.28;3.50;;;;;;;15.94;76.70;101429.06;5087421;28;20126;-83
2023/05/29 05:46:38;;;;;;;4.03;3.35;;;;;;;16.51;74.11;101420.16;5075102;28;20091;-84
2023/05/29 05:49:05;;;;;;;4.05;3.10;;;;;;;17.47;68.18;101426.63;5088104;28;20107;-84
2023/05/29 05:51:31;;;;;;;5.90;3.30;;;;;;;18.45;61.48;101421.03;5074644;28;20413;-84
2023/05/29 05:53:58;;;;;;;3.42;2.80;;;;;;;18.92;59.22;101431.56;5082262;27;20072;-83
2023/05/29 05:56:26;;;;;;;5.38;3.25;;;;;;;19.81;54.83;101425.84;5097504;28;20031;-83
2023/05/29 05:58:52;;;;;;;4.13;2.67;;;;;;;20.09;53.81;101431.63;5064567;28;20036;-82
2023/05/29 06:01:19;;;;;;;4.63;2.90;;;;;;;20.08;49.42;101431.69;5071494;28;20048;-83
2023/05/29 06:03:46;;;;;;;4.05;2.90;;;;;;;20.12;50.28;101431.50;5053948;28;20444;-83
2023/05/29 06:06:14;;;;;;;3.83;2.80;;;;;;;20.06;48.58;101436.28;5066878;28;20036;-84
2023/05/29 06:08:45;;;;;;;8.30;3.55;;;;;;;20.09;49.05;101433.44;5058215;28;20040;-84
2023/05/29 06:11:12;;;;;;;3.88;2.90;;;;;;;19.69;50.49;101438.00;5060680;28;20039;-83
2023/05/29 06:13:39;;;;;;;4.72;3.13;;;;;;;19.37;51.10;101450.16;5050055;28;20036;-83
2023/05/29 06:16:06;;;;;;;3.67;2.90;;;;;;;19.17;52.13;101450.13;5071604;28;20051;-84
2023/05/29 06:18:36;;;;;;;3.67;2.85;;;;;;;18.96;54.87;101455.50;5065028;28;20043;-82
2023/05/29 06:21:04;;;;;;;3.72;3.00;;;;;;;18.69;53.61;101449.50;5077854;28;20442;-83
2023/05/29 06:23:32;;;;;;;5.35;3.20;;;;;;;18.68;53.83;101457.59;5068460;28;20059;-83
2023/05/29 06:25:59;;;;;;;4.53;2.80;;;;;;;18.76;53.67;101459.03;5071517;28;20427;-83
2023/05/29 06:28:26;;;;;;;4.25;2.53;;;;;;;18.90;52.10;101465.59;5085659;28;20036;-82
2023/05/29 06:30:52;;;;;;;2.95;2.50;;;;;;;18.70;52.06;101459.28;5083799;28;20428;-82
2023/05/29 06:33:21;;;;;;;4.05;2.40;;;;;;;18.74;51.78;101465.34;5066364;28;20048;-81
2023/05/29 06:35:48;;;;;;;3.72;2.78;;;;;;;18.87;54.00;101466.59;5088598;28;20033;-82
2023/05/29 06:38:15;;;;;;;3.90;2.35;;;;;;;18.98;50.71;101467.00;5083617;28;20032;-83
2023/05/29 06:40:42;;;;;;;4.80;2.53;;;;;;;18.94;54.08;101467.22;5060347;28;20125;-83
2023/05/29 06:43:10;;;;;;;7.15;2.50;;;;;;;19.06;50.29;101462.19;5068467;28;20044;-82
2023/05/29 06:45:37;;;;;;;6.45;2.50;;;;;;;19.16;48.72;101457.31;5057887;28;20085;-83
2023/05/29 06:48:04;;;;;;;4.68;2.13;;;;;;;19.31;48.59;101462.00;5071383;28;20044;-85
2023/05/29 06:50:36;;;;;;;5.80;2.30;;;;;;;19.35;47.74;101465.44;5047744;28;20044;-83
2023/05/29 06:53:06;;;;;;;5.97;2.20;;;;;;;19.43;46.49;101465.97;5052843;28;20084;-85
2023/05/29 06:55:33;;;;;;;2.95;1.85;;;;;;;19.53;45.71;101471.78;5068829;28;20584;-85
2023/05/29 06:58:00;;;;;;;3.25;2.10;;;;;;;19.64;45.26;101461.47;5080937;28;20043;-85
2023/05/29 07:00:28;;;;;;;3.60;1.90;;;;;;;19.70;45.08;101460.34;5092379;28;20361;-84
2023/05/29 07:02:55;;;;;;;3.25;1.88;;;;;;;19.79;44.93;101457.22;5069348;28;20581;-85
2023/05/29 07:05:22;;;;;;;3.75;2.42;;;;;;;19.88;46.71;101467.53;5057719;28;20451;-83
2023/05/29 07:07:49;;;;;;;3.95;2.33;;;;;;;19.80;46.41;101464.31;5040617;28;20501;-84
2023/05/29 07:10:16;;;;;;;2.67;1.88;;;;;;;20.06;46.03;101463.09;5067411;28;20737;-83
2023/05/29 07:12:42;;;;;;;4.47;2.08;;;;;;;20.31;45.85;101462.81;5052052;28;20039;-80
2023/05/29 07:15:10;;;;;;;3.20;1.90;;;;;;;20.50;45.49;101467.22;5059204;28;20048;-86
2023/05/29 07:17:36;;;;;;;15.68;3.60;;;;;;;20.75;45.03;101458.81;5057634;28;20036;-83
2023/05/29 07:20:07;;;;;;;3.03;2.00;;;;;;;20.82;43.57;101458.53;5054381;28;20090;-83
2023/05/29 07:22:34;;;;;;;3.22;1.90;;;;;;;20.73;43.19;101466.09;5070272;28;20036;-83
2023/05/29 07:25:02;;;;;;;2.72;2.20;;;;;;;20.81;43.56;101465.72;5091699;28;20061;-83
2023/05/29 07:27:28;;;;;;;3.38;2.25;;;;;;;20.90;44.02;101461.69;5054299;28;20127;-83
2023/05/29 07:29:58;;;;;;;3.65;2.17;;;;;;;20.91;43.39;101460.75;5098441;28;20096;-85
2023/05/29 07:32:25;;;;;;;4.63;2.40;;;;;;;20.89;42.79;101454.59;5073275;28;20497;-83
2023/05/29 07:34:52;;;;;;;2.72;2.13;;;;;;;21.03;41.93;101454.75;5081343;28;20050;-82
2023/05/29 07:37:19;;;;;;;3.45;2.45;;;;;;;21.15;42.22;101455.94;5060678;28;20385;-83
2023/05/29 07:39:46;;;;;;;3.13;1.92;;;;;;;21.26;41.84;101457.09;5090254;28;20047;-83
2023/05/29 07:42:14;;;;;;;4.20;2.15;;;;;;;21.35;41.97;101459.34;5091836;28;20054;-84
2023/05/29 07:44:44;;;;;;;3.20;2.05;;;;;;;21.50;42.93;101463.03;5053266;28;20052;-84
2023/05/29 07:47:11;;;;;;;3.38;2.20;;;;;;;21.69;42.51;101460.22;5075723;28;20035;-85
2023/05/29 07:49:43;;;;;;;3.85;2.10;;;;;;;21.82;41.87;101455.94;5093626;28;20082;-84
2023/05/29 07:52:10;;;;;;;4.30;2.10;;;;;;;21.53;41.03;101453.97;5067200;28;20043;-84
2023/05/29 07:54:41;;;;;;;3.03;2.00;;;;;;;21.62;41.22;101461.53;5067631;28;20055;-84
2023/05/29 07:57:11;;;;;;;3.40;2.13;;;;;;;21.65;39.65;101453.28;5062301;28;20024;-84
2023/05/29 07:59:41;;;;;;;4.30;2.08;;;;;;;21.89;40.95;101446.56;5089814;28;20443;-83
2023/05/29 08:02:24;;;;;;;4.13;2.28;;;;;;;22.03;40.41;101448.50;5053430;28;20066;-84
2023/05/29 08:04:52;;;;;;;3.65;2.20;;;;;;;22.11;40.21;101448.09;5090114;28;20035;-85
2023/05/29 08:07:20;;;;;;;3.42;2.10;;;;;;;22.33;39.11;101450.44;5076073;28;20039;-85
2023/05/29 08:09:48;;;;;;;2.50;2.08;;;;;;;22.16;39.61;101443.31;5050302;28;20056;-84
2023/05/29 08:12:15;;;;;;;4.70;2.40;;;;;;;21.73;39.72;101451.06;5077085;28;20093;-84
2023/05/29 08:14:45;;;;;;;7.45;2.78;;;;;;;21.27;40.80;101458.00;5074425;28;20056;-83
2023/05/29 08:17:12;;;;;;;7.00;2.38;;;;;;;21.29;41.66;101462.38;5064063;28;20040;-84
2023/05/29 08:19:39;;;;;;;4.82;2.72;;;;;;;21.56;40.01;101462.72;5072295;28;20182;-85
2023/05/29 08:22:06;;;;;;;3.28;2.50;;;;;;;21.40;39.98;101469.00;5042910;28;20183;-86
2023/05/29 08:24:33;;;;;;;5.72;2.10;;;;;;;21.41;40.02;101471.59;5077998;28;20046;-85
2023/05/29 08:27:00;;;;;;;4.65;2.13;;;;;;;21.01;40.20;101480.81;5094674;28;20465;-84
2023/05/29 08:29:27;;;;;;;3.67;2.28;;;;;;;20.74;40.47;101466.97;5090737;28;20043;-85
2023/05/29 08:31:54;;;;;;;3.05;2.35;;;;;;;20.39;40.89;101464.19;5074592;28;20211;-83
2023/05/29 08:34:21;;;;;;;3.63;2.30;;;;;;;20.38;40.58;101461.56;5070016;28;20401;-83
2023/05/29 08:36:51;;;;;;;5.85;2.20;;;;;;;20.46;40.54;101465.66;5052953;28;20043;-84
2023/05/29 08:39:18;;;;;;;3.83;2.33;;;;;;;20.90;39.74;101445.59;5060056;28;20047;-82
2023/05/29 08:42:10;;;;;;;2.85;1.83;;;;;;;21.52;39.02;101453.06;5066639;28;20189;-83
2023/05/29 08:44:39;;;;;;;5.15;2.70;;;;;;;21.98;37.27;101449.72;5040965;28;20050;-82
2023/05/29 08:47:07;;;;;;;4.78;2.40;;;;;;;22.22;36.17;101453.75;5050900;28;20040;-85
2023/05/29 08:49:40;;;;;;;3.63;2.08;;;;;;;22.64;35.66;101454.94;5069759;28;20416;-84
2023/05/29 08:52:18;;;;;;;4.50;2.50;;;;;;;22.05;36.07;101456.50;5068545;28;20051;-83
2023/05/29 08:54:45;;;;;;;3.05;2.45;;;;;;;21.90;37.10;101458.19;5058571;28;20051;-84
2023/05/29 08:57:12;;;;;;;4.68;2.58;;;;;;;21.81;38.24;101459.56;5070212;28;20042;-85
2023/05/29 08:59:42;;;;;;;33.55;5.57;;;;;;;21.70;38.45;101463.81;5062134;28;20321;-85
2023/05/29 09:02:11;;;;;;;10.32;2.72;;;;;;;21.29;37.96;101465.06;5062480;28;20047;-85
2023/05/29 09:04:39;;;;;;;101.90;15.63;;;;;;;21.60;38.80;101475.03;5072078;28;20246;-85
2023/05/29 09:07:08;;;;;;;4.30;2.38;;;;;;;21.45;36.49;101459.75;5054972;28;20131;-84
2023/05/29 09:09:35;;;;;;;3.55;2.25;;;;;;;21.63;37.05;101471.34;5060104;28;20032;-85
2023/05/29 09:12:12;;;;;;;4.15;2.30;;;;;;;21.53;37.60;101470.97;5055904;28;20399;-84
2023/05/29 09:14:41;;;;;;;5.63;2.90;;;;;;;20.85;39.20;101480.75;5074834;28;20569;-86
2023/05/29 09:17:09;;;;;;;3.90;2.15;;;;;;;20.78;39.85;101480.19;5033346;28;20036;-85
2023/05/29 09:19:38;;;;;;;4.28;2.38;;;;;;;20.70;39.74;101468.94;5036575;28;20074;-85
2023/05/29 09:22:07;;;;;;;3.78;2.20;;;;;;;20.73;39.57;101473.28;5070338;28;20044;-84
2023/05/29 09:24:38;;;;;;;4.40;2.40;;;;;;;21.13;38.92;101472.16;5088303;28;20036;-84
2023/05/29 09:27:07;;;;;;;3.47;2.60;;;;;;;21.30;39.63;101466.78;5053832;28;20168;-86
2023/05/29 09:29:40;;;;;;;4.38;2.10;;;;;;;21.44;39.83;101475.94;5087776;28;20047;-83
2023/05/29 09:32:11;;;;;;;5.60;2.65;;;;;;;20.85;40.28;101471.78;5055268;28;20427;-84
2023/05/29 09:34:39;;;;;;;3.55;2.47;;;;;;;20.53;40.80;101479.66;5071971;28;20074;-85
2023/05/29 09:37:10;;;;;;;4.78;2.30;;;;;;;20.60;41.50;101473.03;5053767;28;20127;-84
2023/05/29 09:39:48;;;;;;;5.00;2.70;;;;;;;20.82;40.05;101478.19;5061198;28;20098;-86
2023/05/29 09:42:16;;;;;;;361.73;47.53;;;;;;;21.19;39.70;101465.56;5068143;28;20048;-87
2023/05/29 09:44:46;;;;;;;6.40;2.67;;;;;;;21.34;39.21;101478.25;5074792;28;20050;-85
2023/05/29 09:47:19;;;;;;;4.22;2.35;;;;;;;21.18;38.57;101479.94;5054786;28;20048;-85
2023/05/29 09:49:46;;;;;;;3.42;2.08;;;;;;;20.92;40.19;101478.59;5062964;28;20046;-86
2023/05/29 09:52:16;;;;;;;4.90;2.47;;;;;;;20.82;40.33;101480.00;5072616;28;20036;-84
2023/05/29 09:54:46;;;;;;;5.82;2.70;;;;;;;20.67;41.04;101478.94;5060136;28;20043;-85
2023/05/29 09:57:14;;;;;;;4.38;2.28;;;;;;;20.45;41.38;101488.06;5051374;28;20044;-84
2023/05/29 09:59:43;;;;;;;5.85;2.67;;;;;;;20.28;42.18;101487.97;5065365;28;20044;-83
2023/05/29 10:02:13;;;;;;;6.22;2.92;;;;;;;20.31;41.65;101482.47;5090814;28;20482;-84
2023/05/29 10:04:41;;;;;;;7.65;2.47;;;;;;;20.64;43.14;101473.75;5045451;28;20051;-85
2023/05/29 10:07:11;;;;;;;6.45;2.90;;;;;;;21.08;40.69;101464.31;5050594;28;20131;-85
2023/05/29 10:09:43;;;;;;;5.82;2.45;;;;;;;21.07;40.55;101480.50;5091423;27;20042;-83
2023/05/29 10:12:11;;;;;;;3.13;2.22;;;;;;;20.93;39.99;101472.28;5083067;28;20046;-83
2023/05/29 10:14:40;;;;;;;5.68;2.80;;;;;;;20.71;40.31;101467.13;5070149;28;20123;-84
2023/05/29 10:17:08;;;;;;;4.88;2.70;;;;;;;20.61;40.36;101460.47;5055369;28;20042;-85
2023/05/29 10:19:37;;;;;;;4.85;2.45;;;;;;;20.35;41.22;101467.09;5047144;28;20037;-85
2023/05/29 10:22:05;;;;;;;5.28;3.22;;;;;;;20.29;41.84;101462.88;5049249;28;20475;-82
2023/05/29 10:24:32;;;;;;;4.20;2.53;;;;;;;20.48;40.75;101477.19;5068726;28;20039;-84
2023/05/29 10:27:00;;;;;;;4.60;2.47;;;;;;;20.41;40.88;101478.38;5054255;28;20143;-83
2023/05/29 10:29:31;;;;;;;24.38;4.93;;;;;;;20.35;41.31;101470.66;5053200;28;20570;-83
2023/05/29 10:32:16;;;;;;;5.55;2.80;;;;;;;20.58;40.04;101472.22;5067005;28;20040;-86
2023/05/29 10:35:14;;;;;;;3.58;2.38;;;;;;;21.19;39.11;101461.09;5078114;28;20039;-86
2023/05/29 10:37:49;;;;;;;4.13;2.38;;;;;;;21.45;37.92;101457.06;5066729;28;20305;-85
2023/05/29 10:40:26;;;;;;;3.60;2.15;;;;;;;21.60;37.57;101455.34;5074715;28;20477;-86
2023/05/29 10:42:57;;;;;;;11.10;2.97;;;;;;;20.95;39.26;101460.53;5070209;28;20044;-83
2023/05/29 10:45:35;;;;;;;4.55;2.15;;;;;;;20.80;40.51;101456.78;5050801;28;20048;-84
2023/05/29 10:48:12;;;;;;;4.93;2.40;;;;;;;20.65;40.18;101462.94;5063136;28;20135;-83
2023/05/29 10:50:42;;;;;;;4.25;2.53;;;;;;;20.44;40.37;101462.19;5093321;28;20036;-84
2023/05/29 10:53:17;;;;;;;3.53;2.25;;;;;;;20.40;41.13;101454.31;5047144;28;20478;-83
2023/05/29 10:55:45;;;;;;;5.10;2.20;;;;;;;20.44;41.79;101453.25;5054839;28;20461;-82
2023/05/29 10:58:14;;;;;;;3.28;2.22;;;;;;;20.45;41.85;101455.88;5060598;28;20261;-82
2023/05/29 11:00:41;;;;;;;5.10;2.30;;;;;;;20.48;41.09;101446.78;5069209;28;20451;-83
2023/05/29 11:03:09;;;;;;;6.53;2.78;;;;;;;20.91;41.13;101450.00;5089939;28;20126;-83
2023/05/29 11:05:55;;;;;;;3.03;2.30;;;;;;;21.20;39.67;101451.22;5078397;28;20591;-86
2023/05/29 11:08:55;;;;;;;5.13;2.30;;;;;;;21.24;40.00;101445.56;5079298;28;20123;-85
2023/05/29 11:11:27;;;;;;;4.45;2.42;;;;;;;21.17;38.59;101448.66;5050627;28;20079;-85
2023/05/29 11:13:56;;;;;;;3.28;1.90;;;;;;;20.91;39.54;101455.38;5085023;28;20032;-85
2023/05/29 11:16:28;;;;;;;2.97;2.00;;;;;;;20.82;39.92;101445.09;5051565;28;20066;-84
2023/05/29 11:19:04;;;;;;;4.00;2.47;;;;;;;20.71;39.66;101445.66;5084997;28;20032;-84
2023/05/29 11:21:52;;;;;;;4.28;1.90;;;;;;;20.97;39.44;101428.22;5062859;28;20385;-83
2023/05/29 11:24:23;;;;;;;3.33;2.03;;;;;;;21.38;38.88;101442.19;5060940;28;20039;-83
2023/05/29 11:26:52;;;;;;;3.92;2.53;;;;;;;21.72;38.20;101438.56;5092126;28;20067;-87
2023/05/29 11:29:23;;;;;;;151.82;20.40;;;;;;;22.06;36.58;101436.69;5059895;28;20092;-85
2023/05/29 11:32:02;;;;;;;12.65;3.45;;;;;;;22.03;36.72;101439.53;5078695;28;20156;-85